Time;durP1;ratioP1;P1;durP2;ratioP2;P2;SDS_P1;SDS_P2;PMS_P1;PMS_P2;Temp;Humidity;BMP_temperature;BMP_pressure;BME280_temperature;BME280_humidity;BME280_pressure;Samples;Min_cycle;Max_cycle;Signal;HPM_P1;HPM_P2
2022/11/10 00:01:57;;;;;;;13.52;4.40;;;7.50;99.90;;;;;;5025688;28;20041;-48
2022/11/10 00:04:23;;;;;;;32.55;5.10;;;7.50;99.90;;;;;;5026863;28;20044;-48
2022/11/10 00:06:49;;;;;;;14.55;4.88;;;7.50;99.90;;;;;;5027241;28;20044;-56
2022/11/10 00:09:15;;;;;;;20.30;5.70;;;7.50;99.90;;;;;;5028503;28;20792;-57
2022/11/10 00:11:41;;;;;;;26.50;5.35;;;8.00;99.90;;;;;;5028060;28;20095;-56
2022/11/10 00:17:03;;;;;;;16.98;4.53;;;7.60;99.90;;;;;;5027116;28;20044;-57
2022/11/10 00:19:33;;;;;;;22.08;4.82;;;7.50;99.90;;;;;;5027356;28;20487;-56
2022/11/10 00:22:00;;;;;;;14.95;5.10;;;8.30;99.90;;;;;;5029030;28;20493;-57
2022/11/10 00:24:26;;;;;;;23.38;5.80;;;7.60;99.90;;;;;;5028832;28;20481;-56
2022/11/10 00:26:52;;;;;;;23.40;5.68;;;7.50;99.90;;;;;;5029185;28;20034;-57
2022/11/10 00:29:18;;;;;;;22.25;5.40;;;7.50;99.90;;;;;;5029246;28;20045;-57
2022/11/10 00:31:44;;;;;;;19.80;5.22;;;7.50;99.90;;;;;;5028522;28;20038;-57
2022/11/10 00:34:15;;;;;;;18.58;5.40;;;7.50;99.90;;;;;;5028329;28;20103;-57
2022/11/10 00:36:42;;;;;;;20.63;5.80;;;7.60;99.90;;;;;;5028285;28;20819;-57
2022/11/10 00:39:08;;;;;;;20.90;5.68;;;7.70;99.90;;;;;;5027991;28;20075;-57
2022/11/10 00:41:33;;;;;;;22.08;7.18;;;8.40;99.90;;;;;;5029021;28;20073;-56
2022/11/10 00:43:59;;;;;;;26.73;6.45;;;7.50;99.90;;;;;;5029106;28;20494;-56
2022/11/10 00:46:25;;;;;;;21.65;6.45;;;7.50;99.90;;;;;;5028593;28;20045;-56
2022/11/10 00:48:51;;;;;;;27.08;6.47;;;7.40;99.90;;;;;;5028647;28;20048;-57
2022/11/10 00:51:22;;;;;;;18.58;7.53;;;8.20;99.90;;;;;;5027010;28;20076;-56
2022/11/10 00:53:48;;;;;;;27.20;7.70;;;7.50;99.90;;;;;;5028273;28;20419;-57
2022/11/10 00:56:14;;;;;;;22.48;6.15;;;7.60;99.90;;;;;;5027659;28;20673;-57
2022/11/10 00:58:40;;;;;;;24.65;7.82;;;7.30;99.90;;;;;;5026288;28;20111;-57
2022/11/10 01:01:06;;;;;;;23.55;7.35;;;7.50;99.90;;;;;;5026730;28;20047;-57
2022/11/10 01:03:32;;;;;;;25.63;7.00;;;7.50;99.90;;;;;;5027924;28;20053;-57
2022/11/10 01:06:03;;;;;;;25.42;7.15;;;7.30;99.90;;;;;;5028274;28;20045;-57
2022/11/10 01:08:28;;;;;;;25.20;7.70;;;7.50;99.90;;;;;;5028470;28;20128;-57
2022/11/10 01:11:01;;;;;;;34.40;9.23;;;7.30;99.90;;;;;;5028094;28;20132;-57
2022/11/10 01:13:27;;;;;;;24.60;6.82;;;7.80;99.90;;;;;;5028246;28;20076;-56
2022/11/10 01:15:52;;;;;;;28.70;7.78;;;7.40;99.90;;;;;;5027504;28;20095;-57
2022/11/10 01:18:18;;;;;;;22.08;7.88;;;7.50;99.90;;;;;;5028055;28;20057;-57
2022/11/10 01:20:50;;;;;;;27.70;8.27;;;7.40;99.90;;;;;;5027250;28;20060;-58
2022/11/10 01:23:16;;;;;;;28.92;9.02;;;7.20;99.90;;;;;;5027922;28;20041;-57
2022/11/10 01:25:41;;;;;;;27.70;8.05;;;7.40;99.90;;;;;;5026974;28;20391;-56
2022/11/10 01:28:07;;;;;;;28.40;7.20;;;7.40;99.90;;;;;;5024736;28;20049;-57
2022/11/10 01:30:33;;;;;;;29.27;8.40;;;7.40;99.90;;;;;;5027030;28;20120;-56
2022/11/10 01:32:58;;;;;;;27.73;8.30;;;7.30;99.90;;;;;;5026975;28;20052;-56
2022/11/10 01:35:24;;;;;;;39.20;9.60;;;7.10;99.90;;;;;;5026601;28;20041;-57
2022/11/10 01:37:51;;;;;;;29.70;8.95;;;7.20;99.90;;;;;;5026537;28;20041;-57
2022/11/10 01:40:17;;;;;;;29.02;9.63;;;7.10;99.90;;;;;;5026892;28;20060;-57
2022/11/10 01:42:52;;;;;;;24.20;9.18;;;7.20;99.90;;;;;;5026512;28;20037;-57
2022/11/10 01:45:23;;;;;;;34.63;8.82;;;7.20;99.90;;;;;;5026751;28;20079;-57
2022/11/10 01:48:02;;;;;;;29.08;8.82;;;7.00;99.90;;;;;;5025394;28;20134;-56
2022/11/10 01:50:31;;;;;;;33.63;8.25;;;7.20;99.90;;;;;;5025605;28;20102;-57
2022/11/10 01:53:01;;;;;;;32.20;10.80;;;7.90;99.90;;;;;;5026265;28;20052;-57
2022/11/10 01:55:27;;;;;;;34.92;10.55;;;7.20;99.90;;;;;;5026565;28;20088;-57
2022/11/10 01:57:54;;;;;;;28.70;10.07;;;7.20;99.90;;;;;;5027094;28;20057;-57
2022/11/10 02:00:20;;;;;;;33.72;11.45;;;7.40;99.90;;;;;;5026729;28;20045;-57
2022/11/10 02:02:54;;;;;;;34.15;10.23;;;7.20;99.90;;;;;;5026118;28;20616;-57
2022/11/10 02:05:22;;;;;;;35.80;11.68;;;7.20;99.90;;;;;;5025498;28;20734;-57
2022/11/10 02:07:50;;;;;;;37.30;12.32;;;7.20;99.90;;;;;;5026518;28;20044;-57
2022/11/10 02:10:18;;;;;;;32.85;10.98;;;7.20;99.90;;;;;;5026742;28;20057;-57
2022/11/10 02:12:45;;;;;;;35.75;10.45;;;7.20;99.90;;;;;;5026132;28;20055;-57
2022/11/10 02:15:14;;;;;;;28.38;11.25;;;7.30;99.90;;;;;;5026624;28;20441;-57
2022/11/10 02:17:40;;;;;;;33.45;10.38;;;7.10;99.90;;;;;;5026227;28;20772;-57
2022/11/10 02:20:12;;;;;;;30.73;11.13;;;7.10;99.90;;;;;;5008166;28;20081;-57
2022/11/10 02:22:39;;;;;;;36.90;11.82;;;7.20;99.90;;;;;;5025845;28;20113;-57
2022/11/10 02:25:05;;;;;;;31.50;11.27;;;7.30;99.90;;;;;;5026605;28;20125;-57
2022/11/10 02:27:31;;;;;;;41.92;12.77;;;7.10;99.90;;;;;;5026442;28;20044;-57
2022/11/10 02:29:58;;;;;;;31.02;11.07;;;7.00;99.90;;;;;;5026098;28;20871;-56
2022/11/10 02:32:23;;;;;;;37.25;11.27;;;7.10;99.90;;;;;;5024717;28;20133;-57
2022/11/10 02:34:49;;;;;;;28.33;10.82;;;7.20;99.90;;;;;;5025686;28;20128;-57
2022/11/10 02:37:15;;;;;;;28.13;9.85;;;7.10;99.90;;;;;;5026517;28;20049;-56
2022/11/10 02:39:41;;;;;;;33.70;12.07;;;7.20;99.90;;;;;;5029189;28;20071;-57
2022/11/10 02:42:09;;;;;;;42.13;11.40;;;7.20;99.90;;;;;;5030685;28;20432;-56
2022/11/10 02:44:36;;;;;;;35.70;11.90;;;7.20;99.90;;;;;;5030824;28;20403;-57
2022/11/10 02:47:02;;;;;;;28.75;10.20;;;7.20;99.90;;;;;;5030666;28;20045;-57
2022/11/10 02:49:28;;;;;;;31.67;10.50;;;7.20;99.90;;;;;;5030205;28;20176;-57
2022/11/10 02:51:54;;;;;;;46.58;12.98;;;7.20;99.90;;;;;;5030121;28;20059;-57
2022/11/10 02:54:20;;;;;;;34.17;12.43;;;7.70;99.90;;;;;;5029995;28;20546;-57
2022/11/10 02:56:46;;;;;;;32.30;11.02;;;7.20;99.90;;;;;;5028644;28;20049;-57
2022/11/10 02:59:11;;;;;;;35.03;11.48;;;7.20;99.90;;;;;;5028458;28;20694;-56
2022/11/10 03:01:37;;;;;;;39.50;11.00;;;7.20;99.90;;;;;;5030259;28;20049;-57
2022/11/10 03:04:03;;;;;;;45.03;12.63;;;7.20;99.90;;;;;;5029806;28;20134;-56
2022/11/10 03:06:28;;;;;;;28.70;9.77;;;7.20;99.90;;;;;;5029609;28;20136;-56
2022/11/10 03:08:54;;;;;;;45.72;12.65;;;7.20;99.90;;;;;;5029627;28;20053;-56
2022/11/10 03:11:20;;;;;;;34.17;11.88;;;7.30;99.90;;;;;;5029221;28;20057;-57
2022/11/10 03:13:45;;;;;;;41.53;11.18;;;7.10;99.90;;;;;;5029747;28;20052;-57
2022/11/10 03:16:11;;;;;;;35.30;11.32;;;7.10;99.90;;;;;;5029666;28;20491;-57
2022/11/10 03:18:37;;;;;;;38.13;12.10;;;7.00;99.90;;;;;;5029982;28;20136;-57
2022/11/10 03:21:02;;;;;;;41.63;11.60;;;7.20;99.90;;;;;;5012482;28;20081;-57
2022/11/10 03:23:28;;;;;;;40.50;11.73;;;7.20;99.90;;;;;;5030275;28;20099;-57
2022/11/10 03:25:54;;;;;;;36.67;11.38;;;7.20;99.90;;;;;;5029894;28;20304;-57
2022/11/10 03:28:19;;;;;;;46.45;11.85;;;7.20;99.90;;;;;;5029994;28;20468;-57
2022/11/10 03:30:45;;;;;;;38.45;12.68;;;7.90;99.90;;;;;;5029748;28;20670;-57
2022/11/10 03:33:11;;;;;;;39.47;12.68;;;7.20;99.90;;;;;;5029358;28;20045;-57
2022/11/10 03:35:36;;;;;;;39.40;11.50;;;7.20;99.90;;;;;;5029163;28;20064;-57
2022/11/10 03:38:02;;;;;;;31.42;10.35;;;7.10;99.90;;;;;;5028719;28;20396;-57
2022/11/10 03:40:28;;;;;;;42.95;11.77;;;7.20;99.90;;;;;;5029354;28;20763;-57
2022/11/10 03:42:54;;;;;;;44.08;11.68;;;7.10;99.90;;;;;;5027801;28;20049;-57
2022/11/10 03:45:19;;;;;;;35.97;10.80;;;7.10;99.90;;;;;;5029231;28;20638;-57
2022/11/10 03:47:49;;;;;;;30.23;10.25;;;7.10;99.90;;;;;;5029004;28;20144;-57
2022/11/10 03:50:15;;;;;;;41.38;12.50;;;7.10;99.90;;;;;;5027950;28;20041;-57
2022/11/10 03:52:43;;;;;;;39.53;12.65;;;7.10;99.90;;;;;;5027231;28;20059;-57
2022/11/10 03:55:11;;;;;;;39.67;10.98;;;7.00;99.90;;;;;;5027038;28;20037;-56
2022/11/10 03:57:37;;;;;;;51.95;12.20;;;7.90;99.90;;;;;;5028838;28;20057;-57
2022/11/10 04:00:03;;;;;;;45.70;11.60;;;7.60;99.90;;;;;;5028020;28;20091;-57
2022/11/10 04:02:29;;;;;;;41.28;13.98;;;7.00;99.90;;;;;;5028555;28;20398;-57
2022/11/10 04:10:24;;;;;;;58.90;14.23;;;7.00;99.90;;;;;;5028504;28;20530;-57
2022/11/10 04:15:43;;;;;;;57.60;14.60;;;7.00;99.90;;;;;;5028956;28;20131;-57
2022/11/10 04:18:19;;;;;;;41.75;14.48;;;7.00;99.90;;;;;;5027522;28;20053;-57
2022/11/10 04:20:49;;;;;;;53.30;15.55;;;7.10;99.90;;;;;;5028839;28;20080;-57
2022/11/10 04:23:27;;;;;;;60.42;16.67;;;7.10;99.90;;;;;;5028245;28;20487;-56
2022/11/10 04:28:50;;;;;;;59.78;16.33;;;7.10;99.90;;;;;;5027852;28;20529;-57
2022/11/10 04:31:17;;;;;;;55.28;17.60;;;7.60;99.90;;;;;;5028184;28;20398;-57
2022/11/10 04:33:44;;;;;;;45.58;15.23;;;7.10;99.90;;;;;;5028031;28;20053;-57
2022/11/10 04:36:13;;;;;;;53.47;17.23;;;7.10;99.90;;;;;;5026985;28;20065;-57
2022/11/10 04:38:39;;;;;;;63.20;17.60;;;8.00;99.90;;;;;;5028148;28;20095;-57
2022/11/10 04:41:06;;;;;;;52.60;15.73;;;7.10;99.90;;;;;;5027671;28;20046;-57
2022/11/10 04:43:32;;;;;;;71.90;18.23;;;7.90;99.90;;;;;;5027817;28;20395;-57
2022/11/10 04:46:00;;;;;;;70.97;17.85;;;7.10;99.90;;;;;;5027412;28;20041;-57
2022/11/10 04:48:26;;;;;;;56.83;17.25;;;7.20;99.90;;;;;;5027429;28;20543;-57
2022/11/10 04:50:53;;;;;;;59.05;17.38;;;7.10;99.90;;;;;;5027864;28;20080;-57
2022/11/10 04:53:19;;;;;;;51.42;18.48;;;7.20;99.90;;;;;;5027524;28;20427;-57
2022/11/10 04:55:45;;;;;;;61.28;18.55;;;7.20;99.90;;;;;;5027646;28;20056;-57
2022/11/10 04:58:12;;;;;;;64.22;19.95;;;7.20;99.90;;;;;;5026102;28;20056;-56
2022/11/10 05:00:38;;;;;;;74.90;18.90;;;7.20;99.90;;;;;;5027575;28;20112;-57
2022/11/10 05:03:06;;;;;;;75.75;21.00;;;7.20;99.90;;;;;;5027448;28;20052;-57
2022/11/10 05:05:32;;;;;;;67.85;18.95;;;7.20;99.90;;;;;;5028209;28;20167;-57
2022/11/10 05:07:58;;;;;;;85.20;20.73;;;8.20;99.90;;;;;;5027523;28;20037;-57
2022/11/10 05:10:24;;;;;;;82.55;22.00;;;7.20;99.90;;;;;;5027898;28;20384;-57
2022/11/10 05:12:57;;;;;;;68.30;20.15;;;7.30;99.90;;;;;;5026027;28;20079;-57
2022/11/10 05:15:24;;;;;;;72.75;20.63;;;7.30;99.90;;;;;;5027593;28;20091;-57
2022/11/10 05:17:51;;;;;;;57.58;18.90;;;8.20;99.90;;;;;;5027423;28;20037;-57
2022/11/10 05:20:18;;;;;;;71.90;21.00;;;8.20;99.90;;;;;;5026069;28;20049;-57
2022/11/10 05:23:36;;;;;;;55.03;20.17;;;7.40;99.90;;;;;;5027609;28;20046;-57
2022/11/10 05:25:36;;;;;;;68.85;20.63;;;7.40;99.90;;;;;;5027358;28;20049;-57
2022/11/10 05:28:03;;;;;;;60.42;19.88;;;7.60;99.90;;;;;;5027202;28;20418;-57
2022/11/10 05:30:28;;;;;;;60.55;20.73;;;7.60;99.90;;;;;;5027597;28;20049;-57
2022/11/10 05:32:54;;;;;;;66.15;20.85;;;7.60;99.90;;;;;;5025848;28;20486;-57
2022/11/10 05:35:20;;;;;;;81.63;23.60;;;7.70;99.90;;;;;;5026571;28;20084;-56
2022/11/10 05:37:45;;;;;;;68.55;21.30;;;7.70;99.90;;;;;;5027373;28;20045;-56
2022/11/10 05:40:12;;;;;;;60.67;19.20;;;7.70;99.90;;;;;;5026638;28;20041;-57
2022/11/10 05:42:45;;;;;;;90.13;23.25;;;7.80;99.90;;;;;;5027012;28;20123;-57
2022/11/10 05:45:10;;;;;;;65.75;20.73;;;7.60;99.90;;;;;;5025342;28;20049;-56
2022/11/10 05:47:37;;;;;;;65.88;21.25;;;7.60;99.90;;;;;;5026956;28;20106;-57
2022/11/10 05:50:04;;;;;;;67.82;21.60;;;7.70;99.90;;;;;;5026830;28;20128;-56
2022/11/10 05:52:29;;;;;;;74.55;21.67;;;7.80;99.90;;;;;;5026896;28;20049;-56
2022/11/10 05:54:55;;;;;;;86.03;23.80;;;7.70;99.90;;;;;;5026211;28;20052;-56
2022/11/10 05:57:21;;;;;;;73.30;21.38;;;7.80;99.90;;;;;;5025958;28;20047;-56
2022/11/10 05:59:46;;;;;;;72.05;22.58;;;7.50;99.90;;;;;;5026205;28;20042;-56
2022/11/10 06:02:12;;;;;;;65.38;21.92;;;7.70;99.90;;;;;;5026120;28;20446;-57
2022/11/10 06:04:38;;;;;;;58.25;20.02;;;7.60;99.90;;;;;;5026420;28;20041;-56
2022/11/10 06:07:03;;;;;;;67.85;20.67;;;7.70;99.90;;;;;;5026088;28;20068;-56
2022/11/10 06:09:29;;;;;;;87.78;24.10;;;7.70;99.90;;;;;;5024625;28;20056;-56
2022/11/10 06:11:55;;;;;;;71.05;23.27;;;7.70;99.90;;;;;;5026125;28;20136;-57
2022/11/10 06:14:20;;;;;;;58.88;21.40;;;8.60;99.90;;;;;;5025697;28;20454;-56
2022/11/10 06:16:46;;;;;;;76.93;24.25;;;7.80;99.90;;;;;;5026459;28;20049;-56
2022/11/10 06:19:12;;;;;;;59.55;22.40;;;7.70;99.90;;;;;;5024651;28;20076;-56
2022/11/10 06:21:37;;;;;;;75.40;23.25;;;8.20;99.90;;;;;;5025883;28;20045;-56
2022/11/10 06:24:03;;;;;;;84.32;23.70;;;7.60;99.90;;;;;;5026309;28;20046;-57
2022/11/10 06:26:29;;;;;;;61.03;20.52;;;7.80;99.90;;;;;;5026449;28;20045;-57
2022/11/10 06:28:55;;;;;;;76.75;22.60;;;8.10;99.90;;;;;;5026798;28;20600;-57
2022/11/10 06:31:20;;;;;;;66.13;21.60;;;8.40;99.90;;;;;;5024772;28;20494;-56
2022/11/10 06:33:48;;;;;;;70.00;20.77;;;7.90;99.90;;;;;;5026484;28;20434;-57
2022/11/10 06:36:14;;;;;;;63.08;20.17;;;7.90;99.90;;;;;;5026191;28;20049;-56
2022/11/10 06:38:40;;;;;;;53.83;19.63;;;7.90;99.90;;;;;;5026646;28;20046;-56
2022/11/10 06:41:05;;;;;;;62.40;19.75;;;7.90;99.90;;;;;;5025824;28;20056;-56
2022/11/10 06:43:31;;;;;;;90.68;22.50;;;7.80;99.90;;;;;;5024979;28;20049;-57
2022/11/10 06:45:57;;;;;;;67.47;20.33;;;7.80;99.90;;;;;;5026776;28;20072;-56
2022/11/10 06:48:22;;;;;;;70.30;20.50;;;7.80;99.90;;;;;;5026216;28;20472;-56
2022/11/10 06:50:48;;;;;;;68.82;20.85;;;7.30;99.90;;;;;;5026440;28;20045;-56
2022/11/10 06:53:14;;;;;;;80.50;22.30;;;7.70;99.90;;;;;;5026159;28;20165;-57
2022/11/10 06:55:39;;;;;;;61.40;21.08;;;7.60;99.90;;;;;;5026141;28;20041;-56
2022/11/10 06:58:05;;;;;;;53.70;19.98;;;7.60;99.90;;;;;;5008463;28;20611;-56
2022/11/10 07:00:31;;;;;;;72.15;20.95;;;7.60;99.90;;;;;;5008207;28;20509;-56
2022/11/10 07:03:06;;;;;;;92.22;22.27;;;7.60;99.90;;;;;;5026137;28;20477;-56
2022/11/10 07:05:35;;;;;;;76.85;20.30;;;7.60;99.90;;;;;;5025092;28;20051;-56
2022/11/10 07:08:21;;;;;;;73.63;19.27;;;8.50;99.90;;;;;;5026244;28;20531;-56
2022/11/10 07:10:54;;;;;;;49.17;18.00;;;7.80;99.90;;;;;;5025769;28;20072;-57
2022/11/10 07:13:21;;;;;;;68.90;19.85;;;7.80;99.90;;;;;;5026513;28;20180;-56
2022/11/10 07:15:46;;;;;;;51.35;18.48;;;7.90;99.90;;;;;;5024947;28;20064;-57
2022/11/10 07:18:12;;;;;;;56.47;19.25;;;8.60;99.90;;;;;;5026258;28;20060;-56
2022/11/10 07:20:38;;;;;;;62.95;21.25;;;8.30;99.90;;;;;;5025918;28;20403;-56
2022/11/10 07:23:05;;;;;;;49.38;19.42;;;8.20;99.90;;;;;;5026099;28;20038;-56
2022/11/10 07:25:34;;;;;;;63.70;19.63;;;8.30;99.90;;;;;;5026670;28;20124;-57
2022/11/10 07:28:05;;;;;;;82.47;22.77;;;8.40;99.90;;;;;;5029637;28;20064;-57
2022/11/10 07:30:33;;;;;;;57.40;19.92;;;8.50;99.90;;;;;;5029469;28;20128;-57
2022/11/10 07:33:19;;;;;;;55.08;20.95;;;8.50;99.90;;;;;;5029659;28;20045;-57
2022/11/10 07:35:53;;;;;;;65.85;19.65;;;8.70;99.90;;;;;;5027681;28;20057;-56
2022/11/10 07:38:19;;;;;;;50.90;18.60;;;9.30;99.90;;;;;;5029175;28;20049;-56
2022/11/10 07:40:45;;;;;;;54.55;19.08;;;8.80;99.90;;;;;;5029436;28;20041;-57
2022/11/10 07:43:10;;;;;;;51.97;18.38;;;9.00;99.90;;;;;;5027917;28;20041;-56
2022/11/10 07:45:36;;;;;;;78.00;22.20;;;9.70;99.90;;;;;;5027343;28;20037;-57
2022/11/10 07:48:04;;;;;;;66.97;20.60;;;9.00;99.90;;;;;;5028681;28;20046;-57
2022/11/10 07:50:30;;;;;;;67.50;19.83;;;9.00;99.90;;;;;;5029102;28;20037;-57
2022/11/10 07:53:08;;;;;;;56.42;19.50;;;9.00;99.90;;;;;;5028644;28;20124;-56
2022/11/10 07:55:35;;;;;;;50.55;17.80;;;8.90;99.90;;;;;;5028306;28;20048;-57
2022/11/10 07:58:01;;;;;;;82.78;22.05;;;8.90;99.90;;;;;;5028903;28;20076;-56
2022/11/10 08:00:27;;;;;;;53.90;19.02;;;8.80;99.90;;;;;;5027582;28;20041;-57
2022/11/10 08:02:52;;;;;;;55.60;18.55;;;8.90;99.90;;;;;;5028616;28;20048;-57
2022/11/10 08:05:18;;;;;;;51.85;18.67;;;8.90;99.90;;;;;;5027007;28;20123;-56
2022/11/10 08:07:44;;;;;;;89.35;24.38;;;9.20;99.90;;;;;;5028505;28;20069;-56
2022/11/10 08:10:10;;;;;;;46.03;20.10;;;9.30;99.90;;;;;;5026715;28;20053;-56
2022/11/10 08:12:36;;;;;;;50.03;19.92;;;9.10;99.90;;;;;;5027702;28;20057;-57
2022/11/10 08:15:02;;;;;;;47.88;19.55;;;9.10;99.90;;;;;;5028088;28;20053;-57
2022/11/10 08:17:28;;;;;;;59.13;20.60;;;8.80;99.90;;;;;;5027990;28;20084;-57
2022/11/10 08:19:53;;;;;;;64.35;22.98;;;9.20;99.90;;;;;;5028118;28;20076;-57
2022/11/10 08:22:19;;;;;;;55.83;21.73;;;9.20;99.90;;;;;;5026704;28;20407;-57
2022/11/10 08:24:45;;;;;;;68.97;23.27;;;9.20;99.90;;;;;;5028428;28;20449;-57
2022/11/10 08:27:10;;;;;;;64.20;24.20;;;9.20;99.90;;;;;;5025872;28;20042;-57
2022/11/10 08:29:36;;;;;;;80.00;24.02;;;10.00;99.90;;;;;;5026411;28;20049;-57
2022/11/10 08:32:02;;;;;;;72.70;24.27;;;9.20;99.90;;;;;;5028046;28;20038;-57
2022/11/10 08:34:27;;;;;;;66.03;22.83;;;9.00;99.90;;;;;;5028113;28;20136;-57
2022/11/10 08:36:53;;;;;;;55.15;22.63;;;9.30;99.90;;;;;;5027209;28;20690;-56
2022/11/10 08:39:19;;;;;;;69.18;25.60;;;8.90;99.90;;;;;;5027557;28;20046;-57
2022/11/10 08:41:45;;;;;;;45.28;21.70;;;9.10;99.90;;;;;;5028135;28;20053;-56
2022/11/10 08:44:12;;;;;;;63.45;24.15;;;9.20;99.90;;;;;;5027796;28;20037;-56
2022/11/10 08:46:38;;;;;;;56.03;23.63;;;9.30;99.90;;;;;;5027289;28;20064;-57
2022/11/10 08:49:04;;;;;;;71.10;25.52;;;9.40;99.90;;;;;;5027656;28;20064;-56
2022/11/10 08:51:30;;;;;;;62.58;24.55;;;9.50;99.90;;;;;;5027585;28;20045;-56
2022/11/10 08:53:55;;;;;;;49.90;22.67;;;10.50;99.90;;;;;;5027902;28;20569;-56
2022/11/10 08:56:21;;;;;;;58.13;24.77;;;10.40;99.90;;;;;;5027356;28;20404;-56
2022/11/10 08:58:46;;;;;;;56.67;23.40;;;9.90;99.90;;;;;;5027661;28;20044;-56
2022/11/10 09:01:12;;;;;;;47.58;21.92;;;10.50;99.90;;;;;;5027693;28;20049;-57
2022/11/10 09:03:38;;;;;;;51.30;21.85;;;10.20;99.90;;;;;;5027144;28;20087;-54
2022/11/10 09:06:04;;;;;;;50.33;23.60;;;10.10;99.90;;;;;;5027364;28;20049;-59
2022/11/10 09:08:32;;;;;;;61.95;25.02;;;10.10;99.90;;;;;;5027292;28;20052;-58
2022/11/10 09:11:02;;;;;;;50.55;22.58;;;10.20;99.90;;;;;;5026736;28;20049;-61
2022/11/10 09:13:29;;;;;;;53.15;21.52;;;10.60;99.90;;;;;;5025549;28;20076;-61
2022/11/10 09:15:54;;;;;;;46.25;20.38;;;10.10;99.90;;;;;;5026661;28;20050;-61
2022/11/10 09:18:20;;;;;;;42.35;18.33;;;10.00;99.90;;;;;;5015079;28;20064;-60
2022/11/10 09:20:46;;;;;;;44.45;18.40;;;10.20;99.90;;;;;;5043548;28;20157;-61
2022/11/10 09:23:15;;;;;;;47.80;17.15;;;10.30;99.90;;;;;;5044150;28;20047;-59
2022/11/10 09:25:41;;;;;;;36.65;16.27;;;11.10;99.90;;;;;;5043922;28;20548;-60
2022/11/10 09:28:15;;;;;;;40.25;16.65;;;10.40;99.90;;;;;;5043889;28;20124;-60
2022/11/10 09:30:41;;;;;;;42.58;16.55;;;10.50;99.90;;;;;;5043260;28;20155;-60
2022/11/10 09:33:07;;;;;;;40.65;16.30;;;10.70;99.90;;;;;;5044093;28;20045;-60
2022/11/10 09:35:33;;;;;;;39.40;15.20;;;10.80;99.90;;;;;;5043694;28;20056;-60
2022/11/10 09:37:59;;;;;;;35.90;16.60;;;10.80;99.90;;;;;;5043959;28;20044;-60
2022/11/10 09:40:42;;;;;;;41.15;14.80;;;11.20;99.90;;;;;;5043931;28;20482;-60
2022/11/10 09:43:33;;;;;;;40.33;13.82;;;11.10;99.90;;;;;;5044024;28;20045;-60
2022/11/10 09:46:02;;;;;;;44.45;14.18;;;11.00;99.90;;;;;;5041387;28;20049;-60
2022/11/10 09:48:31;;;;;;;32.00;15.00;;;11.10;99.90;;;;;;5042808;28;20044;-60
2022/11/10 09:51:03;;;;;;;36.83;13.93;;;11.20;99.90;;;;;;5043273;28;20174;-60
2022/11/10 09:53:46;;;;;;;40.47;13.33;;;11.40;99.90;;;;;;5043360;28;20045;-60
2022/11/10 09:56:21;;;;;;;36.00;12.98;;;11.40;99.90;;;;;;5042374;28;20088;-60
2022/11/10 09:58:47;;;;;;;32.45;13.57;;;11.50;99.90;;;;;;5043474;28;20125;-60
2022/11/10 10:01:28;;;;;;;30.17;12.05;;;12.20;99.90;;;;;;5043727;28;20053;-60
2022/11/10 10:04:04;;;;;;;26.67;12.63;;;11.80;99.90;;;;;;5043122;28;20149;-60
2022/11/10 10:06:36;;;;;;;29.48;13.93;;;11.90;99.90;;;;;;5025340;28;20044;-56
2022/11/10 10:09:18;;;;;;;22.13;11.35;;;12.00;99.90;;;;;;5043090;28;20048;-57
2022/11/10 10:11:47;;;;;;;;;;;12.10;99.90;;;;;;5039310;28;20061;-53
2022/11/10 10:14:41;;;;;;;23.85;10.27;;;12.10;99.90;;;;;;5039248;28;20047;-52
2022/11/10 10:17:10;;;;;;;28.02;10.38;;;12.10;99.90;;;;;;5039897;28;20061;-49
2022/11/10 10:19:59;;;;;;;29.63;10.70;;;12.10;99.90;;;;;;5032856;28;20087;-56
2022/11/10 10:22:51;;;;;;;26.50;11.20;;;12.20;99.90;;;;;;5042015;28;20055;-56
2022/11/10 10:25:25;;;;;;;33.03;10.97;;;12.30;99.90;;;;;;5017535;28;20057;-56
2022/11/10 10:28:19;;;;;;;31.00;11.73;;;12.40;99.90;;;;;;5041787;28;20049;-56
2022/11/10 10:30:45;;;;;;;30.77;10.98;;;12.40;99.90;;;;;;5041955;28;20052;-55
2022/11/10 10:33:20;;;;;;;24.85;9.93;;;12.40;99.90;;;;;;5041917;28;20122;-58
2022/11/10 10:35:48;;;;;;;25.67;8.57;;;12.50;99.90;;;;;;5041751;28;20076;-61
2022/11/10 10:38:17;;;;;;;23.88;9.50;;;12.50;99.90;;;;;;5040226;28;20053;-58
2022/11/10 10:40:45;;;;;;;21.10;7.85;;;12.40;99.90;;;;;;5040053;28;20049;-56
2022/11/10 10:43:11;;;;;;;22.63;7.80;;;12.50;99.90;;;;;;5040368;28;20048;-57
2022/11/10 10:45:41;;;;;;;25.17;7.25;;;12.60;99.90;;;;;;5040773;28;20056;-57
2022/11/10 10:48:28;;;;;;;24.92;6.82;;;12.50;99.90;;;;;;5040839;28;20124;-58
2022/11/10 10:50:54;;;;;;;22.33;6.10;;;12.50;99.90;;;;;;5040434;28;20132;-52
2022/11/10 10:53:22;;;;;;;17.88;6.50;;;12.40;99.90;;;;;;5042175;28;20045;-57
2022/11/10 10:55:59;;;;;;;22.80;6.85;;;12.70;99.90;;;;;;5042166;28;20139;-51
2022/11/10 10:58:35;;;;;;;22.42;5.68;;;12.60;99.90;;;;;;5042075;28;20068;-54
2022/11/10 11:01:06;;;;;;;16.02;5.00;;;12.70;99.90;;;;;;5044004;28;20068;-52
2022/11/10 11:03:40;;;;;;;25.00;5.18;;;12.90;99.90;;;;;;5044967;28;20124;-59
2022/11/10 11:06:13;;;;;;;21.60;5.18;;;12.80;99.90;;;;;;5046355;28;20037;-58
2022/11/10 11:08:51;;;;;;;22.23;4.22;;;12.90;99.90;;;;;;5045403;28;20067;-58
2022/11/10 11:11:17;;;;;;;16.38;3.67;;;12.80;99.90;;;;;;5045813;28;20056;-58
2022/11/10 11:13:43;;;;;;;19.83;4.35;;;12.80;99.90;;;;;;5044615;28;20052;-58
2022/11/10 11:16:11;;;;;;;18.67;4.63;;;13.20;99.90;;;;;;5046001;28;20040;-58
2022/11/10 11:18:38;;;;;;;16.45;3.22;;;13.00;99.90;;;;;;5045891;28;20048;-60
2022/11/10 11:21:14;;;;;;;18.80;3.75;;;14.00;99.90;;;;;;5036662;28;20152;-60
2022/11/10 11:23:44;;;;;;;13.90;3.53;;;13.30;99.90;;;;;;5045617;28;20040;-57
2022/11/10 11:26:43;;;;;;;13.02;3.08;;;13.50;99.90;;;;;;5027489;28;20067;-58
2022/11/10 11:29:25;;;;;;;10.00;2.83;;;13.20;99.90;;;;;;5043756;28;20056;-57
2022/11/10 11:32:06;;;;;;;14.07;3.20;;;13.30;99.90;;;;;;5044965;28;20045;-58
2022/11/10 11:34:43;;;;;;;18.17;2.92;;;13.30;99.90;;;;;;5045380;28;20091;-56
2022/11/10 11:37:26;;;;;;;14.63;2.53;;;13.30;99.90;;;;;;5044826;28;20072;-52
2022/11/10 11:40:06;;;;;;;16.48;2.80;;;13.40;99.90;;;;;;5045331;28;20123;-55
2022/11/10 11:42:55;;;;;;;13.25;2.45;;;13.40;99.90;;;;;;5044333;28;20601;-49
2022/11/10 11:45:32;;;;;;;19.63;2.72;;;13.60;99.90;;;;;;5044523;28;20056;-53
2022/11/10 11:48:45;;;;;;;10.85;2.10;;;13.60;99.90;;;;;;5043444;28;20044;-58
2022/11/10 11:51:22;;;;;;;14.70;1.90;;;13.60;99.90;;;;;;5045519;28;20464;-60
2022/11/10 11:53:57;;;;;;;15.77;2.25;;;13.60;99.90;;;;;;5045664;28;20049;-59
2022/11/10 11:56:31;;;;;;;13.85;2.22;;;13.70;99.90;;;;;;5043452;28;20540;-57
2022/11/10 11:59:15;;;;;;;13.15;2.35;;;13.70;99.90;;;;;;5043567;28;20088;-59
2022/11/10 12:02:01;;;;;;;16.58;3.35;;;13.70;99.90;;;;;;5027080;28;20102;-58
2022/11/10 12:05:04;;;;;;;13.68;2.55;;;13.80;99.90;;;;;;5043531;28;20131;-61
2022/11/10 12:07:43;;;;;;;16.92;3.15;;;13.80;99.90;;;;;;5043192;28;20091;-60
2022/11/10 12:10:21;;;;;;;12.05;2.03;;;13.90;99.90;;;;;;5027521;28;20080;-60
2022/11/10 12:13:21;;;;;;;16.48;2.20;;;14.00;99.90;;;;;;5042075;28;20061;-60
2022/11/10 12:16:05;;;;;;;15.88;2.58;;;14.00;99.90;;;;;;5042532;28;20103;-58
2022/11/10 12:18:36;;;;;;;16.73;4.07;;;14.10;99.90;;;;;;5044273;28;20053;-60
2022/11/10 12:21:13;;;;;;;14.73;2.40;;;14.10;99.90;;;;;;5035610;28;20049;-60
2022/11/10 12:23:48;;;;;;;13.98;1.98;;;14.10;99.90;;;;;;5044813;28;20051;-61
2022/11/10 12:27:02;;;;;;;13.18;1.90;;;14.10;99.90;;;;;;5042302;28;20055;-60
2022/11/10 12:29:40;;;;;;;11.60;2.38;;;14.00;99.90;;;;;;5039194;28;20107;-60
2022/11/10 12:32:38;;;;;;;14.18;2.33;;;14.00;99.90;;;;;;5044396;28;20044;-62
2022/11/10 12:35:34;;;;;;;15.75;2.30;;;13.80;99.90;;;;;;5045015;28;20114;-59
2022/11/10 12:38:20;;;;;;;16.60;1.80;;;13.70;99.90;;;;;;5042327;28;20102;-61
2022/11/10 12:40:48;;;;;;;17.35;2.05;;;13.70;99.90;;;;;;5042122;28;20821;-55
2022/11/10 12:43:22;;;;;;;13.90;2.08;;;13.70;99.90;;;;;;5047425;28;20057;-58
2022/11/10 12:45:55;;;;;;;12.30;1.75;;;13.70;99.90;;;;;;5048424;28;20059;-59
2022/11/10 12:48:21;;;;;;;18.08;1.83;;;13.70;99.90;;;;;;5048226;28;20718;-59
2022/11/10 12:51:07;;;;;;;16.65;2.72;;;13.70;99.90;;;;;;5046041;28;20061;-58
2022/11/10 12:53:40;;;;;;;15.85;2.35;;;13.80;99.90;;;;;;5048022;28;20116;-57
2022/11/10 12:56:31;;;;;;;11.93;1.70;;;13.80;99.90;;;;;;5047774;28;20045;-57
2022/11/10 12:59:20;;;;;;;17.23;2.15;;;13.90;99.90;;;;;;5047542;28;20592;-56
2022/11/10 13:01:50;;;;;;;16.02;3.10;;;13.90;99.90;;;;;;5044772;28;20104;-56
2022/11/10 13:04:17;;;;;;;14.05;2.10;;;13.90;99.90;;;;;;5046185;28;20531;-57
2022/11/10 13:07:04;;;;;;;27.20;3.13;;;13.90;99.90;;;;;;5047424;28;20055;-57